Time;durP1;ratioP1;P1;durP2;ratioP2;P2;SDS_P1;SDS_P2;PMS_P1;PMS_P2;Temp;Humidity;BMP_temperature;BMP_pressure;BME280_temperature;BME280_humidity;BME280_pressure;Samples;Min_cycle;Max_cycle;Signal;HPM_P1;HPM_P2
2023/06/05 00:00:34;;;;;;;;;;;12.70;99.90;;;;;;5135018;27;19928;-73
2023/06/05 00:02:59;;;;;;;;;;;12.70;99.90;;;;;;5117512;27;19923;-73
2023/06/05 00:05:26;;;;;;;;;;;12.80;99.90;;;;;;5134948;27;19972;-73
2023/06/05 00:07:52;;;;;;;;;;;12.80;99.90;;;;;;5134870;27;19924;-75
2023/06/05 00:10:17;;;;;;;;;;;12.70;99.90;;;;;;5135108;27;19929;-73
2023/06/05 00:12:44;;;;;;;;;;;12.70;99.90;;;;;;5134975;27;20322;-73
2023/06/05 00:15:09;;;;;;;;;;;12.70;99.90;;;;;;5117617;27;19924;-73
2023/06/05 00:17:36;;;;;;;;;;;12.80;99.90;;;;;;5136031;27;20293;-72
2023/06/05 00:20:02;;;;;;;;;;;12.80;99.90;;;;;;5117047;27;19924;-74
2023/06/05 00:22:28;;;;;;;;;;;12.80;99.90;;;;;;5134403;27;20387;-72
2023/06/05 00:24:53;;;;;;;;;;;12.70;99.90;;;;;;5134436;27;19923;-75
2023/06/05 00:27:19;;;;;;;;;;;12.70;99.90;;;;;;5134756;27;19923;-72
2023/06/05 00:29:45;;;;;;;;;;;12.70;99.90;;;;;;5117590;27;19923;-72
2023/06/05 00:32:10;;;;;;;;;;;12.70;99.90;;;;;;5134134;27;19924;-73
2023/06/05 00:34:36;;;;;;;;;;;12.70;99.90;;;;;;5135729;27;19979;-73
2023/06/05 00:37:02;;;;;;;;;;;12.80;99.90;;;;;;5133849;27;19923;-73
2023/06/05 00:39:28;;;;;;;;;;;12.80;99.90;;;;;;5169129;27;19924;-72
2023/06/05 00:41:53;;;;;;;;;;;12.80;99.90;;;;;;5169105;27;19930;-75
2023/06/05 00:44:20;;;;;;;;;;;12.80;99.90;;;;;;5135275;27;19930;-74
2023/06/05 00:46:47;;;;;;;;;;;12.80;99.90;;;;;;5134436;27;19978;-74
2023/06/05 00:49:13;;;;;;;;;;;12.80;99.90;;;;;;5133999;27;19924;-72
2023/06/05 00:51:40;;;;;;;;;;;12.90;99.90;;;;;;5116492;27;20086;-72
2023/06/05 00:54:07;;;;;;;;;;;12.90;99.90;;;;;;5168584;27;19928;-73
2023/06/05 00:56:35;;;;;;;;;;;13.00;99.90;;;;;;5134201;27;19923;-73
2023/06/05 00:59:01;;;;;;;;;;;12.90;99.90;;;;;;5134969;27;19945;-73
2023/06/05 01:01:28;;;;;;;;;;;12.90;99.90;;;;;;5135237;27;19934;-72
2023/06/05 01:03:59;;;;;;;;;;;12.90;99.90;;;;;;5134698;27;20398;-73
2023/06/05 01:06:26;;;;;;;;;;;12.80;99.90;;;;;;5134017;27;19929;-72
2023/06/05 01:08:52;;;;;;;;;;;12.80;99.90;;;;;;5116656;27;19930;-72
2023/06/05 01:11:26;;;;;;;;;;;12.80;99.90;;;;;;5134704;27;19924;-73
2023/06/05 01:13:55;;;;;;;;;;;12.70;99.90;;;;;;5116927;27;19948;-73
2023/06/05 01:16:30;;;;;;;;;;;12.70;99.90;;;;;;5134571;27;19983;-72
2023/06/05 01:19:02;;;;;;;;;;;12.70;99.90;;;;;;5133823;27;19923;-74
2023/06/05 01:21:28;;;;;;;;;;;12.70;99.90;;;;;;5133881;27;19946;-72
2023/06/05 01:23:53;;;;;;;;;;;12.70;99.90;;;;;;5134647;27;19930;-73
2023/06/05 01:26:22;;;;;;;;;;;12.70;99.90;;;;;;5099183;27;19924;-73
2023/06/05 01:28:48;;;;;;;;;;;12.70;99.90;;;;;;5134609;27;19924;-73
2023/06/05 01:31:16;;;;;;;;;;;12.70;99.90;;;;;;5132738;27;19929;-73
2023/06/05 01:34:01;;;;;;;;;;;12.70;99.90;;;;;;5133221;27;20394;-73
2023/06/05 01:36:28;;;;;;;;;;;12.70;99.90;;;;;;5168489;27;19953;-73
2023/06/05 01:38:54;;;;;;;;;;;12.70;99.90;;;;;;5134398;27;19968;-73
2023/06/05 01:41:20;;;;;;;;;;;12.70;99.90;;;;;;5133831;27;19976;-73
2023/06/05 01:43:47;;;;;;;;;;;12.70;99.90;;;;;;5098314;27;19935;-73
2023/06/05 01:46:15;;;;;;;;;;;12.60;99.90;;;;;;5150218;27;19941;-73
2023/06/05 01:48:42;;;;;;;;;;;12.70;99.90;;;;;;5150597;27;19968;-73
2023/06/05 01:51:08;;;;;;;;;;;12.70;99.90;;;;;;5132702;27;20453;-73
2023/06/05 01:53:33;;;;;;;;;;;12.70;99.90;;;;;;5132848;27;19923;-73
2023/06/05 01:55:59;;;;;;;;;;;12.70;99.90;;;;;;5133018;27;19923;-73
2023/06/05 01:58:26;;;;;;;;;;;12.70;99.90;;;;;;5132705;27;19978;-73
2023/06/05 02:00:56;;;;;;;;;;;12.70;99.90;;;;;;5167386;27;19923;-73
2023/06/05 02:03:22;;;;;;;;;;;12.70;99.90;;;;;;5133570;27;20283;-73
2023/06/05 02:05:48;;;;;;;;;;;12.70;99.90;;;;;;5132691;27;19923;-73
2023/06/05 02:08:19;;;;;;;;;;;12.60;99.90;;;;;;5133482;27;19924;-73
2023/06/05 02:10:48;;;;;;;;;;;12.70;99.90;;;;;;5133965;27;20261;-73
2023/06/05 02:13:18;;;;;;;;;;;12.60;99.90;;;;;;5133241;27;20261;-73
2023/06/05 02:15:44;;;;;;;;;;;12.60;99.90;;;;;;5132558;27;20280;-73
2023/06/05 02:18:10;;;;;;;;;;;12.60;99.90;;;;;;5132070;27;19924;-74
2023/06/05 02:20:36;;;;;;;;;;;12.60;99.90;;;;;;5133583;27;19949;-73
2023/06/05 02:23:02;;;;;;;;;;;12.60;99.90;;;;;;5132211;27;20019;-73
2023/06/05 02:25:28;;;;;;;;;;;12.60;99.90;;;;;;5133269;27;19966;-73
2023/06/05 02:27:54;;;;;;;;;;;12.50;99.90;;;;;;5132167;27;19927;-73
2023/06/05 02:30:23;;;;;;;;;;;12.60;99.90;;;;;;5131827;27;20456;-73
2023/06/05 02:32:56;;;;;;;;;;;12.50;99.90;;;;;;5133320;27;19980;-73
2023/06/05 02:35:22;;;;;;;;;;;12.50;99.90;;;;;;5131684;27;19970;-73
2023/06/05 02:37:47;;;;;;;;;;;12.50;99.90;;;;;;5133243;27;19963;-73
2023/06/05 02:40:13;;;;;;;;;;;12.50;99.90;;;;;;5131908;27;19930;-73
2023/06/05 02:42:39;;;;;;;;;;;12.50;99.90;;;;;;5132172;27;19923;-75
2023/06/05 02:45:05;;;;;;;;;;;12.50;99.90;;;;;;5131848;27;20288;-73
2023/06/05 02:47:31;;;;;;;;;;;12.50;99.90;;;;;;5131751;27;20445;-73
2023/06/05 02:49:57;;;;;;;;;;;12.50;99.90;;;;;;5133198;27;20014;-73
2023/06/05 02:52:24;;;;;;;;;;;12.50;99.90;;;;;;5130918;27;19923;-73
2023/06/05 02:54:50;;;;;;;;;;;12.50;99.90;;;;;;5132985;27;19924;-73
2023/06/05 02:57:17;;;;;;;;;;;12.50;99.90;;;;;;5131842;27;20140;-73
2023/06/05 02:59:43;;;;;;;;;;;12.40;99.90;;;;;;5114873;28;19923;-73
2023/06/05 03:02:08;;;;;;;;;;;12.30;99.90;;;;;;5132968;27;19923;-74
2023/06/05 03:04:34;;;;;;;;;;;12.30;99.90;;;;;;5132443;27;19923;-73
2023/06/05 03:07:03;;;;;;;;;;;12.40;99.90;;;;;;5132763;28;20372;-73
2023/06/05 03:09:30;;;;;;;;;;;12.30;99.90;;;;;;5132361;27;19970;-73
2023/06/05 03:11:56;;;;;;;;;;;12.20;99.90;;;;;;5131721;28;20483;-72
2023/06/05 03:14:22;;;;;;;;;;;12.20;99.90;;;;;;5114134;28;19924;-72
2023/06/05 03:16:47;;;;;;;;;;;12.30;99.90;;;;;;5131311;28;19949;-73
2023/06/05 03:19:13;;;;;;;;;;;12.30;99.90;;;;;;5114554;28;19929;-73
2023/06/05 03:21:41;;;;;;;;;;;12.30;99.90;;;;;;5131187;28;19923;-73
2023/06/05 03:24:07;;;;;;;;;;;12.30;99.90;;;;;;5130914;28;19928;-73
2023/06/05 03:26:32;;;;;;;;;;;12.30;99.90;;;;;;5131137;28;19966;-73
2023/06/05 03:28:58;;;;;;;;;;;12.30;99.90;;;;;;5131333;28;19975;-73
2023/06/05 03:31:24;;;;;;;;;;;12.40;99.90;;;;;;5130955;28;20010;-73
2023/06/05 03:33:49;;;;;;;;;;;12.30;99.90;;;;;;5132716;27;19923;-72
2023/06/05 03:36:17;;;;;;;;;;;12.30;99.90;;;;;;5131610;28;19923;-72
2023/06/05 03:38:43;;;;;;;;;;;12.30;99.90;;;;;;5132534;27;19924;-73
2023/06/05 03:41:09;;;;;;;;;;;12.30;99.90;;;;;;5148841;27;19923;-73
2023/06/05 03:43:34;;;;;;;;;;;12.30;99.90;;;;;;5132046;27;19928;-73
2023/06/05 03:46:00;;;;;;;;;;;12.30;99.90;;;;;;5131635;28;19931;-73
2023/06/05 03:48:26;;;;;;;;;;;12.30;99.90;;;;;;5130974;28;19942;-73
2023/06/05 03:50:53;;;;;;;;;;;12.30;99.90;;;;;;5131511;28;19923;-73
2023/06/05 03:53:19;;;;;;;;;;;12.30;99.90;;;;;;5113829;28;19923;-73
2023/06/05 03:55:45;;;;;;;;;;;12.30;99.90;;;;;;5132322;27;19923;-73
2023/06/05 03:58:15;;;;;;;;;;;12.30;99.90;;;;;;5131422;28;19923;-73
2023/06/05 04:00:42;;;;;;;;;;;12.30;99.90;;;;;;5130808;28;19927;-74
2023/06/05 04:03:11;;;;;;;;;;;12.30;99.90;;;;;;5131386;28;19930;-74
2023/06/05 04:05:37;;;;;;;;;;;12.30;99.90;;;;;;5132045;27;19947;-75
2023/06/05 04:08:03;;;;;;;;;;;12.30;99.90;;;;;;5133535;27;19949;-74
2023/06/05 04:10:29;;;;;;;;;;;12.30;99.90;;;;;;5134822;27;19927;-74
2023/06/05 04:12:55;;;;;;;;;;;12.30;99.90;;;;;;5135242;27;19927;-73
2023/06/05 04:15:21;;;;;;;;;;;12.30;99.90;;;;;;5134915;27;19938;-75
2023/06/05 04:17:46;;;;;;;;;;;12.40;99.90;;;;;;5135775;27;19934;-73
2023/06/05 04:20:15;;;;;;;;;;;12.40;99.90;;;;;;5135969;27;19923;-73
2023/06/05 04:22:41;;;;;;;;;;;12.40;99.90;;;;;;5117382;27;19992;-74
2023/06/05 04:25:08;;;;;;;;;;;12.40;99.90;;;;;;5134808;27;19923;-74
2023/06/05 04:27:33;;;;;;;;;;;12.40;99.90;;;;;;5135707;27;20423;-74
2023/06/05 04:29:59;;;;;;;;;;;12.40;99.90;;;;;;5135822;27;19967;-74
2023/06/05 04:32:25;;;;;;;;;;;12.50;99.90;;;;;;5134677;27;20391;-76
2023/06/05 04:34:52;;;;;;;;;;;12.50;99.90;;;;;;5134895;27;19954;-74
2023/06/05 04:37:17;;;;;;;;;;;12.60;99.90;;;;;;5134528;27;20017;-74
2023/06/05 04:39:43;;;;;;;;;;;12.60;99.90;;;;;;5135417;27;20054;-74
2023/06/05 04:42:09;;;;;;;;;;;12.70;99.90;;;;;;5169385;27;19984;-74
2023/06/05 04:44:35;;;;;;;;;;;12.60;99.90;;;;;;5134236;27;20472;-74
2023/06/05 04:47:00;;;;;;;;;;;12.70;99.90;;;;;;5134650;27;19923;-74
2023/06/05 04:49:26;;;;;;;;;;;12.60;99.90;;;;;;5135415;27;20276;-76
2023/06/05 04:51:53;;;;;;;;;;;12.70;99.90;;;;;;5134866;27;20021;-74
2023/06/05 04:54:19;;;;;;;;;;;12.70;99.90;;;;;;5135425;27;20297;-73
2023/06/05 04:56:45;;;;;;;;;;;12.70;99.90;;;;;;5133978;27;19953;-74
2023/06/05 04:59:11;;;;;;;;;;;12.70;99.90;;;;;;5135472;27;19966;-74
2023/06/05 05:01:36;;;;;;;;;;;12.70;99.90;;;;;;5135096;27;20403;-74
2023/06/05 05:04:02;;;;;;;;;;;12.80;99.90;;;;;;5134118;27;19947;-73
2023/06/05 05:06:28;;;;;;;;;;;12.80;99.90;;;;;;5135014;27;20380;-74
2023/06/05 05:08:53;;;;;;;;;;;12.90;99.90;;;;;;5135223;27;19976;-74
2023/06/05 05:11:19;;;;;;;;;;;12.90;99.90;;;;;;5134189;27;19931;-74
2023/06/05 05:13:45;;;;;;;;;;;12.90;99.90;;;;;;5135050;27;19923;-74
2023/06/05 05:16:11;;;;;;;;;;;13.00;99.90;;;;;;5134108;27;19930;-74
2023/06/05 05:18:40;;;;;;;;;;;13.00;99.90;;;;;;5133006;27;19930;-74
2023/06/05 05:21:06;;;;;;;;;;;13.10;99.90;;;;;;5134103;27;20015;-73
2023/06/05 05:23:32;;;;;;;;;;;13.10;99.90;;;;;;5133508;27;19971;-74
2023/06/05 05:25:57;;;;;;;;;;;13.20;99.90;;;;;;5133989;27;19966;-74
2023/06/05 05:28:23;;;;;;;;;;;13.20;99.90;;;;;;5133553;27;19975;-73
2023/06/05 05:30:48;;;;;;;;;;;13.30;99.90;;;;;;5133428;27;20018;-73
2023/06/05 05:33:14;;;;;;;;;;;13.40;99.90;;;;;;5133543;27;20002;-74
2023/06/05 05:35:40;;;;;;;;;;;13.40;99.90;;;;;;5133410;27;20010;-74
2023/06/05 05:38:06;;;;;;;;;;;13.30;99.90;;;;;;5133717;27;20189;-75
2023/06/05 05:40:31;;;;;;;;;;;13.30;99.90;;;;;;5133441;27;20424;-74
2023/06/05 05:42:57;;;;;;;;;;;13.30;99.90;;;;;;5133338;27;19924;-74
2023/06/05 05:45:22;;;;;;;;;;;13.30;99.90;;;;;;5134587;27;20334;-73
2023/06/05 05:47:48;;;;;;;;;;;13.40;99.90;;;;;;5134254;27;20020;-74
2023/06/05 05:50:14;;;;;;;;;;;13.50;99.90;;;;;;5134482;27;19929;-74
2023/06/05 05:52:39;;;;;;;;;;;13.60;99.90;;;;;;5132484;27;19923;-74
2023/06/05 05:55:05;;;;;;;;;;;13.60;99.90;;;;;;5134170;27;19976;-74
2023/06/05 05:57:31;;;;;;;;;;;13.70;99.90;;;;;;5134111;27;19956;-74
2023/06/05 05:59:56;;;;;;;;;;;13.60;99.90;;;;;;5167455;27;20269;-74
2023/06/05 06:02:22;;;;;;;;;;;13.70;99.90;;;;;;5133984;27;19945;-74
2023/06/05 06:04:48;;;;;;;;;;;13.60;99.90;;;;;;5132676;27;19975;-74
2023/06/05 06:07:14;;;;;;;;;;;13.70;99.90;;;;;;5133162;27;19923;-74
2023/06/05 06:09:40;;;;;;;;;;;13.70;99.90;;;;;;5133740;27;19989;-74
2023/06/05 06:12:07;;;;;;;;;;;13.90;99.90;;;;;;5115906;27;19933;-74
2023/06/05 06:14:33;;;;;;;;;;;14.00;99.90;;;;;;5133811;27;19931;-74
2023/06/05 06:16:59;;;;;;;;;;;14.20;99.90;;;;;;5115565;27;20018;-74
2023/06/05 06:19:27;;;;;;;;;;;14.20;99.90;;;;;;5132887;27;19924;-74
2023/06/05 06:21:53;;;;;;;;;;;14.20;99.90;;;;;;5115515;27;19924;-74
2023/06/05 06:24:22;;;;;;;;;;;14.20;99.90;;;;;;5132524;27;19924;-74
2023/06/05 06:26:48;;;;;;;;;;;14.20;99.90;;;;;;5132602;27;20010;-74
2023/06/05 06:29:15;;;;;;;;;;;14.30;99.90;;;;;;5133793;27;19975;-74
2023/06/05 06:31:42;;;;;;;;;;;14.50;99.90;;;;;;5131888;27;20299;-72
2023/06/05 06:34:09;;;;;;;;;;;14.80;99.90;;;;;;5132459;27;19924;-72
2023/06/05 06:36:40;;;;;;;;;;;15.00;99.90;;;;;;5132446;27;19923;-72
2023/06/05 06:39:08;;;;;;;;;;;15.10;99.90;;;;;;5132465;27;19923;-73
2023/06/05 06:41:35;;;;;;;;;;;15.30;99.90;;;;;;5133095;27;19933;-72
2023/06/05 06:44:01;;;;;;;;;;;15.40;99.90;;;;;;5166314;27;20064;-72
2023/06/05 06:46:27;;;;;;;;;;;15.60;99.90;;;;;;5133378;27;19924;-72
2023/06/05 06:48:52;;;;;;;;;;;15.90;99.90;;;;;;5115072;27;19923;-73
2023/06/05 06:51:18;;;;;;;;;;;16.80;99.90;;;;;;5133257;27;20276;-72
2023/06/05 06:53:44;;;;;;;;;;;17.60;99.90;;;;;;5131371;27;19931;-73
2023/06/05 06:56:10;;;;;;;;;;;17.80;99.90;;;;;;5133346;27;20326;-72
2023/06/05 06:58:36;;;;;;;;;;;17.60;99.90;;;;;;5132317;27;19924;-72
2023/06/05 07:01:03;;;;;;;;;;;17.60;99.90;;;;;;5131873;27;19930;-73
2023/06/05 07:03:28;;;;;;;;;;;17.70;99.90;;;;;;5131921;27;19930;-72
2023/06/05 07:05:54;;;;;;;;;;;17.40;99.90;;;;;;5131433;28;19924;-73
2023/06/05 07:08:19;;;;;;;;;;;17.30;99.90;;;;;;5132090;28;19923;-72
2023/06/05 07:10:45;;;;;;;;;;;16.90;99.90;;;;;;5114418;28;19923;-74
2023/06/05 07:13:11;;;;;;;;;;;16.70;99.90;;;;;;5133141;28;20361;-72
2023/06/05 07:15:37;;;;;;;;;;;16.60;99.90;;;;;;5131936;28;19924;-72
2023/06/05 07:18:03;;;;;;;;;;;16.60;99.90;;;;;;5113995;28;20330;-72
2023/06/05 07:20:28;;;;;;;;;;;17.20;99.90;;;;;;5131825;28;19924;-70
2023/06/05 07:22:54;;;;;;;;;;;17.50;99.90;;;;;;5132561;28;19923;-72
2023/06/05 07:25:22;;;;;;;;;;;17.70;99.90;;;;;;5131715;28;19923;-72
2023/06/05 07:27:48;;;;;;;;;;;18.20;99.90;;;;;;5131811;28;19987;-71
2023/06/05 07:30:13;;;;;;;;;;;19.10;99.90;;;;;;5131449;28;20056;-72
2023/06/05 07:32:42;;;;;;;;;;;20.20;99.90;;;;;;5132971;27;20014;-73
2023/06/05 07:35:08;;;;;;;;;;;20.70;99.90;;;;;;5131696;28;19943;-73
2023/06/05 07:37:34;;;;;;;;;;;21.60;99.20;;;;;;5132779;27;20368;-71
2023/06/05 07:40:00;;;;;;;;;;;22.10;97.30;;;;;;5131560;28;19929;-71
2023/06/05 07:42:25;;;;;;;;;;;22.50;97.10;;;;;;5133034;27;20022;-71
2023/06/05 07:44:51;;;;;;;;;;;22.50;96.70;;;;;;5135561;27;19919;-72
2023/06/05 07:47:17;;;;;;;;;;;22.30;96.50;;;;;;5118587;27;19923;-73
2023/06/05 07:49:42;;;;;;;;;;;21.90;96.90;;;;;;5135569;27;19938;-71
2023/06/05 07:52:10;;;;;;;;;;;21.70;96.50;;;;;;5135477;27;20326;-72
2023/06/05 07:54:35;;;;;;;;;;;21.50;96.50;;;;;;5135828;27;19988;-71
2023/06/05 07:57:01;;;;;;;;;;;20.60;96.80;;;;;;5135016;27;19924;-72
2023/06/05 07:59:27;;;;;;;;;;;20.20;97.10;;;;;;5136732;27;20346;-72
2023/06/05 08:01:54;;;;;;;;;;;20.50;98.00;;;;;;5135024;27;19924;-73
2023/06/05 08:04:19;;;;;;;;;;;20.80;98.00;;;;;;5136477;27;19931;-73
2023/06/05 08:06:45;;;;;;;;;;;21.60;97.60;;;;;;5135597;27;19924;-73
2023/06/05 08:09:12;;;;;;;;;;;22.10;96.10;;;;;;5133511;27;19923;-73
2023/06/05 08:11:41;;;;;;;;;;;22.60;96.20;;;;;;5135852;27;19998;-74
2023/06/05 08:14:07;;;;;;;;;;;23.00;95.30;;;;;;5151974;27;20328;-73
2023/06/05 08:16:35;;;;;;;;;;;23.30;94.70;;;;;;5117649;27;19923;-74
2023/06/05 08:19:01;;;;;;;;;;;23.30;94.90;;;;;;5135895;27;20030;-73
2023/06/05 08:21:26;;;;;;;;;;;23.10;94.90;;;;;;5118096;27;19935;-74
2023/06/05 08:23:52;;;;;;;;;;;22.80;94.80;;;;;;5134504;27;20599;-74
2023/06/05 08:26:18;;;;;;;;;;;22.70;95.50;;;;;;5117825;27;20258;-73
2023/06/05 08:28:44;;;;;;;;;;;22.50;94.80;;;;;;5136020;27;20365;-73
2023/06/05 08:31:10;;;;;;;;;;;22.80;95.30;;;;;;5134724;27;19963;-76
2023/06/05 08:33:36;;;;;;;;;;;23.00;94.70;;;;;;5134706;27;19979;-74
2023/06/05 08:36:02;;;;;;;;;;;23.50;94.40;;;;;;5134698;27;19982;-74
2023/06/05 08:38:29;;;;;;;;;;;23.50;93.80;;;;;;5134568;27;19924;-74
2023/06/05 08:41:07;;;;;;;;;;;23.50;94.20;;;;;;5117308;27;19946;-74
2023/06/05 08:43:37;;;;;;;;;;;22.80;94.00;;;;;;5134717;27;19927;-74
2023/06/05 08:46:04;;;;;;;;;;;23.00;94.60;;;;;;5117043;27;19923;-74
2023/06/05 08:48:31;;;;;;;;;;;23.40;93.90;;;;;;5134895;27;19982;-73
2023/06/05 08:50:58;;;;;;;;;;;23.90;94.80;;;;;;5134147;27;20006;-73
2023/06/05 08:53:26;;;;;;;;;;;24.10;93.60;;;;;;5134559;27;19931;-73
2023/06/05 08:55:53;;;;;;;;;;;24.30;93.40;;;;;;5117001;27;20306;-73
2023/06/05 08:58:19;;;;;;;;;;;24.50;93.30;;;;;;5134497;27;20339;-72
2023/06/05 09:00:45;;;;;;;;;;;24.60;92.80;;;;;;5134003;27;20015;-71
2023/06/05 09:03:12;;;;;;;;;;;24.40;93.20;;;;;;5116735;27;19927;-72
2023/06/05 09:05:38;;;;;;;;;;;24.50;93.40;;;;;;5134385;27;19935;-70
2023/06/05 09:08:03;;;;;;;;;;;24.50;93.30;;;;;;5133991;27;20276;-72
2023/06/05 09:10:30;;;;;;;;;;;24.60;92.80;;;;;;5116682;27;19966;-73
2023/06/05 09:12:59;;;;;;;;;;;24.70;92.70;;;;;;5133514;27;19923;-72
2023/06/05 09:15:26;;;;;;;;;;;24.30;92.50;;;;;;5134601;27;20377;-74
2023/06/05 09:18:09;;;;;;;;;;;23.80;93.10;;;;;;5134043;27;19980;-72
2023/06/05 09:20:36;;;;;;;;;;;23.80;93.60;;;;;;5134118;27;20288;-71
2023/06/05 09:23:02;;;;;;;;;;;23.80;93.10;;;;;;5133536;27;19980;-72
2023/06/05 09:25:49;;;;;;;;;;;23.70;93.10;;;;;;5134003;27;19920;-72
2023/06/05 09:28:17;;;;;;;;;;;23.60;93.20;;;;;;5134708;27;19923;-72
2023/06/05 09:30:54;;;;;;;;;;;23.80;93.20;;;;;;5133567;27;19923;-72
2023/06/05 09:33:19;;;;;;;;;;;23.90;93.20;;;;;;5133581;27;19946;-73
2023/06/05 09:35:45;;;;;;;;;;;23.40;92.70;;;;;;5134674;27;19923;-72
2023/06/05 09:38:25;;;;;;;;;;;23.00;93.50;;;;;;5133394;27;19942;-76
2023/06/05 09:40:51;;;;;;;;;;;23.30;93.50;;;;;;5134702;27;20288;-73
2023/06/05 09:43:20;;;;;;;;;;;23.00;93.50;;;;;;5132958;27;19931;-74
2023/06/05 09:45:46;;;;;;;;;;;22.50;93.50;;;;;;5133546;27;20014;-73
2023/06/05 09:48:14;;;;;;;;;;;22.30;93.80;;;;;;5132986;27;19993;-74
2023/06/05 09:50:41;;;;;;;;;;;22.40;94.30;;;;;;5133604;27;19923;-73
2023/06/05 09:53:08;;;;;;;;;;;22.70;93.60;;;;;;5115553;27;20269;-72
2023/06/05 09:55:34;;;;;;;;;;;22.50;93.50;;;;;;5133050;27;19980;-74
2023/06/05 09:58:03;;;;;;;;;;;22.10;93.70;;;;;;5134149;27;20471;-74
2023/06/05 10:00:29;;;;;;;;;;;21.70;94.20;;;;;;5134221;27;19967;-74
2023/06/05 10:02:55;;;;;;;;;;;21.80;94.80;;;;;;5134118;27;19988;-74
2023/06/05 10:05:22;;;;;;;;;;;22.00;94.80;;;;;;5132650;27;20249;-74
2023/06/05 10:07:53;;;;;;;;;;;22.20;94.50;;;;;;5132847;27;20455;-74
2023/06/05 10:10:19;;;;;;;;;;;22.00;94.00;;;;;;5115850;27;19930;-74
2023/06/05 10:12:46;;;;;;;;;;;22.00;94.10;;;;;;5132763;27;20042;-74
2023/06/05 10:15:12;;;;;;;;;;;22.00;93.90;;;;;;5132744;27;19984;-74
2023/06/05 10:17:38;;;;;;;;;;;21.90;93.90;;;;;;5134098;27;19924;-74
2023/06/05 10:20:06;;;;;;;;;;;22.00;94.10;;;;;;5132709;27;20395;-74
2023/06/05 10:22:33;;;;;;;;;;;21.80;94.30;;;;;;5133292;27;19931;-74
2023/06/05 10:25:03;;;;;;;;;;;21.40;94.80;;;;;;5133816;27;19924;-73
2023/06/05 10:27:28;;;;;;;;;;;21.40;94.80;;;;;;5133587;27;20018;-73
2023/06/05 10:30:12;;;;;;;;;;;21.50;94.80;;;;;;5115588;27;20390;-73
2023/06/05 10:32:53;;;;;;;;;;;21.20;95.10;;;;;;5132469;27;20010;-73
2023/06/05 10:35:38;;;;;;;;;;;21.20;95.80;;;;;;5132471;27;19924;-72
2023/06/05 10:38:24;;;;;;;;;;;21.20;95.70;;;;;;5132424;27;19973;-72
2023/06/05 10:40:54;;;;;;;;;;;21.10;95.30;;;;;;5132820;27;19923;-73
2023/06/05 10:43:23;;;;;;;;;;;20.80;95.60;;;;;;5133691;27;19923;-73
2023/06/05 10:45:49;;;;;;;;;;;20.90;95.90;;;;;;5132574;27;20294;-73
2023/06/05 10:48:16;;;;;;;;;;;20.80;96.00;;;;;;5132230;27;20064;-73
2023/06/05 10:50:42;;;;;;;;;;;20.80;95.80;;;;;;5132696;27;19919;-74
2023/06/05 10:53:27;;;;;;;;;;;20.70;96.10;;;;;;5114914;27;20018;-74
2023/06/05 10:55:53;;;;;;;;;;;20.50;96.30;;;;;;5132151;27;19971;-73
2023/06/05 10:58:22;;;;;;;;;;;20.60;96.50;;;;;;5114862;27;20363;-74
2023/06/05 11:01:08;;;;;;;;;;;20.50;96.40;;;;;;5132354;27;19924;-74
2023/06/05 11:03:52;;;;;;;;;;;20.50;96.20;;;;;;5131764;27;20007;-73
2023/06/05 11:06:18;;;;;;;;;;;20.50;96.10;;;;;;5132906;27;19923;-73
2023/06/05 11:09:04;;;;;;;;;;;20.70;96.10;;;;;;5132388;28;20018;-74
2023/06/05 11:11:29;;;;;;;;;;;20.70;96.10;;;;;;5131867;28;19923;-73
2023/06/05 11:13:55;;;;;;;;;;;20.70;96.10;;;;;;5115026;28;20289;-74
2023/06/05 11:16:31;;;;;;;;;;;20.70;95.90;;;;;;5131996;27;19930;-73
2023/06/05 11:19:15;;;;;;;;;;;20.70;96.20;;;;;;5137325;27;19923;-74
2023/06/05 11:21:59;;;;;;;;;;;20.60;96.10;;;;;;5136509;27;19945;-74
2023/06/05 11:24:25;;;;;;;;;;;20.40;96.20;;;;;;5135646;27;20280;-74
2023/06/05 11:26:51;;;;;;;;;;;20.50;96.20;;;;;;5137335;27;19931;-73
2023/06/05 11:29:16;;;;;;;;;;;20.40;96.50;;;;;;5137160;27;20313;-73
2023/06/05 11:31:42;;;;;;;;;;;20.40;96.70;;;;;;5136037;27;19924;-74
2023/06/05 11:34:13;;;;;;;;;;;20.50;96.60;;;;;;5136285;27;19968;-73
2023/06/05 11:36:38;;;;;;;;;;;20.70;96.60;;;;;;5135746;27;19924;-74
2023/06/05 11:39:05;;;;;;;;;;;20.60;96.10;;;;;;5136085;27;20405;-74
2023/06/05 11:41:30;;;;;;;;;;;20.50;96.00;;;;;;5135491;27;20017;-74
2023/06/05 11:43:56;;;;;;;;;;;20.30;96.50;;;;;;5135695;27;20018;-73
2023/06/05 11:46:38;;;;;;;;;;;20.30;96.90;;;;;;5135575;27;20343;-74
2023/06/05 11:49:04;;;;;;;;;;;20.20;96.70;;;;;;5137030;27;19919;-74
2023/06/05 11:51:34;;;;;;;;;;;20.20;96.90;;;;;;5136659;27;19926;-74
2023/06/05 11:54:01;;;;;;;;;;;20.10;96.90;;;;;;5118496;27;20014;-74
2023/06/05 11:56:27;;;;;;;;;;;20.20;97.40;;;;;;5135526;27;19928;-74
2023/06/05 11:58:54;;;;;;;;;;;20.30;97.20;;;;;;5136761;27;19923;-74
2023/06/05 12:01:23;;;;;;;;;;;20.30;96.80;;;;;;5170097;27;20368;-74
2023/06/05 12:04:00;;;;;;;;;;;20.20;97.00;;;;;;5118760;27;19980;-74
2023/06/05 12:06:26;;;;;;;;;;;20.10;97.20;;;;;;5135034;27;19975;-74
2023/06/05 12:08:52;;;;;;;;;;;19.90;97.30;;;;;;5135413;27;19974;-74
2023/06/05 12:11:27;;;;;;;;;;;19.90;97.60;;;;;;5136497;27;19924;-74
2023/06/05 12:13:54;;;;;;;;;;;19.80;97.50;;;;;;5135372;27;20322;-74
2023/06/05 12:16:28;;;;;;;;;;;19.80;97.40;;;;;;5135139;27;19927;-74
2023/06/05 12:18:54;;;;;;;;;;;19.70;97.70;;;;;;5135431;27;19929;-74
2023/06/05 12:21:20;;;;;;;;;;;19.80;97.70;;;;;;5117964;27;19919;-75
2023/06/05 12:23:46;;;;;;;;;;;19.80;97.50;;;;;;5134986;27;20018;-74
2023/06/05 12:26:12;;;;;;;;;;;19.90;97.40;;;;;;5117821;27;20408;-74
2023/06/05 12:28:37;;;;;;;;;;;20.00;97.40;;;;;;5134470;27;20015;-74
2023/06/05 12:31:03;;;;;;;;;;;19.80;97.40;;;;;;5135176;27;19923;-74
2023/06/05 12:33:28;;;;;;;;;;;19.80;97.50;;;;;;5135855;27;19924;-74
2023/06/05 12:36:07;;;;;;;;;;;19.90;97.40;;;;;;5117944;27;19923;-74
2023/06/05 12:38:40;;;;;;;;;;;20.00;97.50;;;;;;5151964;27;19924;-74
2023/06/05 12:41:08;;;;;;;;;;;20.20;97.80;;;;;;5169400;27;20030;-73
2023/06/05 12:43:34;;;;;;;;;;;20.20;97.90;;;;;;5135437;27;20261;-74
2023/06/05 12:46:00;;;;;;;;;;;20.10;97.60;;;;;;5117471;27;19987;-74
2023/06/05 12:48:26;;;;;;;;;;;20.10;97.50;;;;;;5134548;27;20028;-74
2023/06/05 12:50:51;;;;;;;;;;;20.20;97.80;;;;;;5135591;27;19923;-74
2023/06/05 12:53:18;;;;;;;;;;;20.00;97.50;;;;;;5133949;27;19924;-74
2023/06/05 12:55:43;;;;;;;;;;;19.90;98.20;;;;;;5168690;27;19974;-73
2023/06/05 12:58:09;;;;;;;;;;;19.80;97.70;;;;;;5135432;27;20377;-73
2023/06/05 13:00:35;;;;;;;;;;;19.70;98.00;;;;;;5133927;27;20372;-73
2023/06/05 13:03:02;;;;;;;;;;;19.70;98.30;;;;;;5135471;27;20023;-75
2023/06/05 13:05:28;;;;;;;;;;;19.70;98.20;;;;;;5134222;27;19924;-74
2023/06/05 13:07:54;;;;;;;;;;;19.70;98.20;;;;;;5135324;27;19924;-73
2023/06/05 13:10:20;;;;;;;;;;;19.60;97.80;;;;;;5116913;27;19924;-74
2023/06/05 13:12:46;;;;;;;;;;;19.40;98.20;;;;;;5133868;27;20017;-74
2023/06/05 13:15:11;;;;;;;;;;;19.30;98.20;;;;;;5134078;27;19930;-74
2023/06/05 13:17:37;;;;;;;;;;;19.30;98.50;;;;;;5133512;27;19924;-74
2023/06/05 13:20:08;;;;;;;;;;;19.40;98.70;;;;;;5134302;27;19923;-74
2023/06/05 13:22:42;;;;;;;;;;;19.40;98.20;;;;;;5133428;27;19930;-74
2023/06/05 13:25:09;;;;;;;;;;;19.30;98.30;;;;;;5135128;27;20061;-74
2023/06/05 13:27:35;;;;;;;;;;;19.20;98.60;;;;;;5134835;27;20018;-74
2023/06/05 13:30:00;;;;;;;;;;;19.30;98.60;;;;;;5133788;27;20021;-74
2023/06/05 13:32:26;;;;;;;;;;;19.30;98.80;;;;;;5133702;27;20024;-74
2023/06/05 13:34:53;;;;;;;;;;;19.30;98.60;;;;;;5133630;27;19930;-75
2023/06/05 13:37:19;;;;;;;;;;;19.10;98.40;;;;;;5133864;27;19931;-74
2023/06/05 13:39:45;;;;;;;;;;;19.00;98.70;;;;;;5133828;27;19924;-74
2023/06/05 13:42:11;;;;;;;;;;;19.10;98.80;;;;;;5133620;27;19927;-74
2023/06/05 13:44:37;;;;;;;;;;;19.10;98.40;;;;;;5133168;27;19930;-74
2023/06/05 13:47:03;;;;;;;;;;;19.00;98.60;;;;;;5116697;27;19931;-74
2023/06/05 13:49:29;;;;;;;;;;;19.00;99.40;;;;;;5134926;27;19924;-74
2023/06/05 13:51:55;;;;;;;;;;;19.00;98.90;;;;;;5134331;27;19924;-73
2023/06/05 13:54:20;;;;;;;;;;;19.00;98.90;;;;;;5134448;27;19931;-74
2023/06/05 13:56:46;;;;;;;;;;;19.10;99.10;;;;;;5133075;27;19928;-74
2023/06/05 13:59:11;;;;;;;;;;;19.10;98.70;;;;;;5134454;27;19930;-74
2023/06/05 14:01:37;;;;;;;;;;;19.10;98.80;;;;;;5115653;27;19930;-74
2023/06/05 14:04:03;;;;;;;;;;;19.10;98.70;;;;;;5133061;27;20287;-75
2023/06/05 14:06:28;;;;;;;;;;;19.00;98.80;;;;;;5099041;27;19923;-75
2023/06/05 14:08:54;;;;;;;;;;;19.00;99.30;;;;;;5134026;27;19930;-74
2023/06/05 14:11:19;;;;;;;;;;;19.00;99.30;;;;;;5133205;27;19930;-74
2023/06/05 14:13:45;;;;;;;;;;;19.00;99.30;;;;;;5132621;27;20331;-74
2023/06/05 14:16:11;;;;;;;;;;;18.90;98.90;;;;;;5132961;27;19924;-74